sensor_id;sensor_type;location;lat;lon;timestamp;P1;durP1;ratioP1;P2;durP2;ratioP2
2320;SDS011;15376;48.540;9.268;2022-12-16T00:00:14;44.87;;;29.00;;
2320;SDS011;15376;48.540;9.268;2022-12-16T00:02:40;45.63;;;30.60;;
2320;SDS011;15376;48.540;9.268;2022-12-16T00:05:06;52.50;;;29.33;;
2320;SDS011;15376;48.540;9.268;2022-12-16T00:07:32;56.00;;;32.20;;
2320;SDS011;15376;48.540;9.268;2022-12-16T00:09:57;48.73;;;29.60;;
2320;SDS011;15376;48.540;9.268;2022-12-16T00:12:23;52.70;;;30.70;;
2320;SDS011;15376;48.540;9.268;2022-12-16T00:14:48;46.30;;;30.27;;
2320;SDS011;15376;48.540;9.268;2022-12-16T00:17:13;38.70;;;26.63;;
2320;SDS011;15376;48.540;9.268;2022-12-16T00:19:39;44.57;;;27.00;;
2320;SDS011;15376;48.540;9.268;2022-12-16T00:22:04;45.60;;;29.80;;
2320;SDS011;15376;48.540;9.268;2022-12-16T00:24:29;47.90;;;29.10;;
2320;SDS011;15376;48.540;9.268;2022-12-16T00:26:55;46.07;;;27.23;;
2320;SDS011;15376;48.540;9.268;2022-12-16T00:29:21;42.37;;;28.30;;
2320;SDS011;15376;48.540;9.268;2022-12-16T00:31:46;38.80;;;27.80;;
2320;SDS011;15376;48.540;9.268;2022-12-16T00:34:15;47.93;;;30.47;;
2320;SDS011;15376;48.540;9.268;2022-12-16T00:36:41;44.60;;;28.77;;
2320;SDS011;15376;48.540;9.268;2022-12-16T00:39:07;45.73;;;29.30;;
2320;SDS011;15376;48.540;9.268;2022-12-16T00:41:34;46.90;;;28.77;;
2320;SDS011;15376;48.540;9.268;2022-12-16T00:43:59;47.07;;;30.50;;
2320;SDS011;15376;48.540;9.268;2022-12-16T00:46:24;55.80;;;32.67;;
2320;SDS011;15376;48.540;9.268;2022-12-16T00:48:50;50.00;;;29.73;;
2320;SDS011;15376;48.540;9.268;2022-12-16T00:51:15;47.57;;;32.70;;
2320;SDS011;15376;48.540;9.268;2022-12-16T00:53:40;48.40;;;30.80;;
2320;SDS011;15376;48.540;9.268;2022-12-16T00:56:07;45.87;;;28.97;;
2320;SDS011;15376;48.540;9.268;2022-12-16T00:58:33;49.07;;;30.90;;
2320;SDS011;15376;48.540;9.268;2022-12-16T01:00:59;46.43;;;29.70;;
2320;SDS011;15376;48.540;9.268;2022-12-16T01:03:25;47.50;;;31.60;;
2320;SDS011;15376;48.540;9.268;2022-12-16T01:05:50;46.93;;;30.23;;
2320;SDS011;15376;48.540;9.268;2022-12-16T01:08:16;52.00;;;30.70;;
2320;SDS011;15376;48.540;9.268;2022-12-16T01:10:41;46.43;;;30.50;;
2320;SDS011;15376;48.540;9.268;2022-12-16T01:13:06;57.23;;;38.37;;
2320;SDS011;15376;48.540;9.268;2022-12-16T01:15:32;53.83;;;33.90;;
2320;SDS011;15376;48.540;9.268;2022-12-16T01:17:57;52.57;;;30.77;;
2320;SDS011;15376;48.540;9.268;2022-12-16T01:20:23;54.77;;;34.03;;
2320;SDS011;15376;48.540;9.268;2022-12-16T01:22:48;52.57;;;36.10;;
2320;SDS011;15376;48.540;9.268;2022-12-16T01:25:14;46.47;;;32.10;;
2320;SDS011;15376;48.540;9.268;2022-12-16T01:27:39;48.67;;;33.60;;
2320;SDS011;15376;48.540;9.268;2022-12-16T01:30:05;53.00;;;33.40;;
2320;SDS011;15376;48.540;9.268;2022-12-16T01:32:33;52.30;;;32.33;;
2320;SDS011;15376;48.540;9.268;2022-12-16T01:34:58;44.90;;;29.50;;
2320;SDS011;15376;48.540;9.268;2022-12-16T01:37:24;48.80;;;32.73;;
2320;SDS011;15376;48.540;9.268;2022-12-16T01:39:50;46.50;;;31.03;;
2320;SDS011;15376;48.540;9.268;2022-12-16T01:42:16;46.30;;;28.87;;
2320;SDS011;15376;48.540;9.268;2022-12-16T01:44:44;54.10;;;31.00;;
2320;SDS011;15376;48.540;9.268;2022-12-16T01:47:15;41.27;;;29.57;;
2320;SDS011;15376;48.540;9.268;2022-12-16T01:52:22;49.60;;;29.30;;
2320;SDS011;15376;48.540;9.268;2022-12-16T01:54:53;51.57;;;31.07;;
2320;SDS011;15376;48.540;9.268;2022-12-16T01:57:29;54.10;;;33.53;;
2320;SDS011;15376;48.540;9.268;2022-12-16T02:00:06;48.77;;;31.80;;
2320;SDS011;15376;48.540;9.268;2022-12-16T02:02:33;49.57;;;30.47;;
2320;SDS011;15376;48.540;9.268;2022-12-16T02:04:59;50.13;;;31.20;;
2320;SDS011;15376;48.540;9.268;2022-12-16T02:18:54;45.42;;;29.42;;
2320;SDS011;15376;48.540;9.268;2022-12-16T02:29:31;55.35;;;32.08;;
2320;SDS011;15376;48.540;9.268;2022-12-16T02:40:27;52.93;;;33.00;;
2320;SDS011;15376;48.540;9.268;2022-12-16T02:43:16;57.87;;;33.50;;
2320;SDS011;15376;48.540;9.268;2022-12-16T02:45:51;52.42;;;32.53;;
2320;SDS011;15376;48.540;9.268;2022-12-16T02:48:17;54.30;;;32.30;;
2320;SDS011;15376;48.540;9.268;2022-12-16T02:50:51;58.37;;;31.73;;
2320;SDS011;15376;48.540;9.268;2022-12-16T02:53:18;54.50;;;33.67;;
2320;SDS011;15376;48.540;9.268;2022-12-16T03:01:09;54.20;;;35.37;;
2320;SDS011;15376;48.540;9.268;2022-12-16T03:06:35;47.30;;;30.17;;
2320;SDS011;15376;48.540;9.268;2022-12-16T03:09:04;49.73;;;34.17;;
2320;SDS011;15376;48.540;9.268;2022-12-16T03:11:33;56.03;;;33.57;;
2320;SDS011;15376;48.540;9.268;2022-12-16T03:14:00;60.33;;;35.00;;
2320;SDS011;15376;48.540;9.268;2022-12-16T03:16:30;48.57;;;32.40;;
2320;SDS011;15376;48.540;9.268;2022-12-16T03:18:59;51.23;;;30.07;;
2320;SDS011;15376;48.540;9.268;2022-12-16T03:21:28;54.43;;;32.20;;
2320;SDS011;15376;48.540;9.268;2022-12-16T03:24:02;53.77;;;31.17;;
2320;SDS011;15376;48.540;9.268;2022-12-16T03:29:39;45.77;;;30.43;;
2320;SDS011;15376;48.540;9.268;2022-12-16T03:32:14;50.83;;;30.97;;
2320;SDS011;15376;48.540;9.268;2022-12-16T03:34:49;48.97;;;29.97;;
2320;SDS011;15376;48.540;9.268;2022-12-16T03:37:17;51.33;;;30.98;;
2320;SDS011;15376;48.540;9.268;2022-12-16T03:39:47;52.45;;;31.67;;
2320;SDS011;15376;48.540;9.268;2022-12-16T03:42:15;51.73;;;30.57;;
2320;SDS011;15376;48.540;9.268;2022-12-16T03:44:42;47.33;;;29.93;;
2320;SDS011;15376;48.540;9.268;2022-12-16T03:47:08;43.90;;;29.43;;
2320;SDS011;15376;48.540;9.268;2022-12-16T03:49:35;50.60;;;30.17;;
2320;SDS011;15376;48.540;9.268;2022-12-16T03:52:00;47.70;;;29.77;;
2320;SDS011;15376;48.540;9.268;2022-12-16T03:54:26;53.00;;;31.50;;
2320;SDS011;15376;48.540;9.268;2022-12-16T03:56:51;48.87;;;31.03;;
2320;SDS011;15376;48.540;9.268;2022-12-16T03:59:16;51.17;;;31.37;;
2320;SDS011;15376;48.540;9.268;2022-12-16T04:01:42;51.33;;;31.53;;
2320;SDS011;15376;48.540;9.268;2022-12-16T04:04:07;51.67;;;30.40;;
2320;SDS011;15376;48.540;9.268;2022-12-16T04:06:33;48.57;;;30.23;;
2320;SDS011;15376;48.540;9.268;2022-12-16T04:08:59;48.63;;;32.93;;
2320;SDS011;15376;48.540;9.268;2022-12-16T04:11:24;51.23;;;31.90;;
2320;SDS011;15376;48.540;9.268;2022-12-16T04:14:22;46.50;;;31.03;;
2320;SDS011;15376;48.540;9.268;2022-12-16T04:17:07;52.80;;;30.70;;
2320;SDS011;15376;48.540;9.268;2022-12-16T04:19:55;49.58;;;31.35;;
2320;SDS011;15376;48.540;9.268;2022-12-16T04:22:39;54.75;;;30.85;;
2320;SDS011;15376;48.540;9.268;2022-12-16T04:25:30;51.97;;;30.20;;
2320;SDS011;15376;48.540;9.268;2022-12-16T04:27:58;56.60;;;32.73;;
2320;SDS011;15376;48.540;9.268;2022-12-16T04:30:24;48.20;;;32.33;;
2320;SDS011;15376;48.540;9.268;2022-12-16T04:32:58;52.27;;;31.50;;
2320;SDS011;15376;48.540;9.268;2022-12-16T04:35:45;48.10;;;30.67;;
2320;SDS011;15376;48.540;9.268;2022-12-16T04:38:29;47.73;;;31.17;;
2320;SDS011;15376;48.540;9.268;2022-12-16T04:41:13;59.23;;;33.60;;
2320;SDS011;15376;48.540;9.268;2022-12-16T04:43:57;46.07;;;29.67;;
2320;SDS011;15376;48.540;9.268;2022-12-16T04:46:41;48.07;;;30.13;;
2320;SDS011;15376;48.540;9.268;2022-12-16T04:49:25;49.77;;;31.10;;
2320;SDS011;15376;48.540;9.268;2022-12-16T04:52:09;46.83;;;31.10;;
2320;SDS011;15376;48.540;9.268;2022-12-16T04:54:54;53.27;;;32.17;;
2320;SDS011;15376;48.540;9.268;2022-12-16T04:57:38;47.57;;;31.40;;
2320;SDS011;15376;48.540;9.268;2022-12-16T05:00:22;49.13;;;30.40;;
2320;SDS011;15376;48.540;9.268;2022-12-16T05:03:07;49.50;;;31.80;;
2320;SDS011;15376;48.540;9.268;2022-12-16T05:05:50;49.50;;;30.52;;
2320;SDS011;15376;48.540;9.268;2022-12-16T05:08:34;57.35;;;35.05;;
2320;SDS011;15376;48.540;9.268;2022-12-16T05:11:18;56.25;;;33.03;;
2320;SDS011;15376;48.540;9.268;2022-12-16T05:14:02;50.55;;;30.63;;
2320;SDS011;15376;48.540;9.268;2022-12-16T05:16:46;58.03;;;34.40;;
2320;SDS011;15376;48.540;9.268;2022-12-16T05:19:30;49.40;;;31.80;;
2320;SDS011;15376;48.540;9.268;2022-12-16T05:22:14;58.05;;;32.17;;
2320;SDS011;15376;48.540;9.268;2022-12-16T05:24:58;52.95;;;34.28;;
2320;SDS011;15376;48.540;9.268;2022-12-16T05:27:42;48.33;;;29.90;;
2320;SDS011;15376;48.540;9.268;2022-12-16T05:30:26;51.03;;;32.93;;
2320;SDS011;15376;48.540;9.268;2022-12-16T05:33:10;50.55;;;31.10;;
2320;SDS011;15376;48.540;9.268;2022-12-16T05:35:54;56.40;;;30.47;;
2320;SDS011;15376;48.540;9.268;2022-12-16T05:38:38;61.05;;;31.55;;
2320;SDS011;15376;48.540;9.268;2022-12-16T05:41:22;54.50;;;33.08;;
2320;SDS011;15376;48.540;9.268;2022-12-16T05:44:05;43.80;;;29.37;;
2320;SDS011;15376;48.540;9.268;2022-12-16T05:46:49;57.10;;;34.42;;
2320;SDS011;15376;48.540;9.268;2022-12-16T05:49:33;49.00;;;32.13;;
2320;SDS011;15376;48.540;9.268;2022-12-16T05:52:17;50.93;;;32.30;;
2320;SDS011;15376;48.540;9.268;2022-12-16T05:55:01;46.30;;;30.10;;
2320;SDS011;15376;48.540;9.268;2022-12-16T05:57:49;46.97;;;30.27;;
2320;SDS011;15376;48.540;9.268;2022-12-16T06:00:33;51.47;;;29.63;;
2320;SDS011;15376;48.540;9.268;2022-12-16T06:03:17;53.00;;;31.03;;
2320;SDS011;15376;48.540;9.268;2022-12-16T06:06:01;48.93;;;30.73;;
2320;SDS011;15376;48.540;9.268;2022-12-16T06:08:45;48.88;;;29.23;;
2320;SDS011;15376;48.540;9.268;2022-12-16T06:11:45;55.78;;;31.27;;
2320;SDS011;15376;48.540;9.268;2022-12-16T06:14:29;49.73;;;30.90;;
2320;SDS011;15376;48.540;9.268;2022-12-16T06:17:13;44.75;;;30.40;;
2320;SDS011;15376;48.540;9.268;2022-12-16T06:19:57;48.65;;;30.20;;
2320;SDS011;15376;48.540;9.268;2022-12-16T06:22:41;44.78;;;29.52;;
2320;SDS011;15376;48.540;9.268;2022-12-16T06:25:25;44.90;;;29.33;;
2320;SDS011;15376;48.540;9.268;2022-12-16T06:28:09;40.80;;;28.08;;
2320;SDS011;15376;48.540;9.268;2022-12-16T06:30:53;40.97;;;28.90;;
2320;SDS011;15376;48.540;9.268;2022-12-16T06:33:37;46.47;;;29.27;;
2320;SDS011;15376;48.540;9.268;2022-12-16T06:36:21;46.50;;;30.53;;
2320;SDS011;15376;48.540;9.268;2022-12-16T06:39:05;69.47;;;38.85;;
2320;SDS011;15376;48.540;9.268;2022-12-16T06:41:49;49.60;;;30.00;;
2320;SDS011;15376;48.540;9.268;2022-12-16T06:44:33;45.80;;;30.20;;
2320;SDS011;15376;48.540;9.268;2022-12-16T06:47:17;44.08;;;29.20;;
2320;SDS011;15376;48.540;9.268;2022-12-16T06:50:01;41.77;;;29.43;;
2320;SDS011;15376;48.540;9.268;2022-12-16T06:52:45;52.40;;;34.17;;
2320;SDS011;15376;48.540;9.268;2022-12-16T06:55:28;45.03;;;28.90;;
2320;SDS011;15376;48.540;9.268;2022-12-16T06:58:12;49.45;;;29.75;;
2320;SDS011;15376;48.540;9.268;2022-12-16T07:00:56;52.60;;;33.20;;
2320;SDS011;15376;48.540;9.268;2022-12-16T07:03:40;48.35;;;32.78;;
2320;SDS011;15376;48.540;9.268;2022-12-16T07:06:24;51.22;;;30.20;;
2320;SDS011;15376;48.540;9.268;2022-12-16T07:09:08;49.80;;;31.13;;
2320;SDS011;15376;48.540;9.268;2022-12-16T07:11:52;48.15;;;29.42;;
2320;SDS011;15376;48.540;9.268;2022-12-16T07:14:36;45.88;;;30.65;;
2320;SDS011;15376;48.540;9.268;2022-12-16T07:17:20;49.37;;;31.53;;
2320;SDS011;15376;48.540;9.268;2022-12-16T07:20:04;49.70;;;29.30;;
2320;SDS011;15376;48.540;9.268;2022-12-16T07:22:48;56.10;;;34.00;;
2320;SDS011;15376;48.540;9.268;2022-12-16T07:25:32;49.83;;;30.37;;
2320;SDS011;15376;48.540;9.268;2022-12-16T07:28:16;61.30;;;32.07;;
2320;SDS011;15376;48.540;9.268;2022-12-16T07:31:00;60.20;;;30.75;;
2320;SDS011;15376;48.540;9.268;2022-12-16T07:33:44;57.72;;;33.88;;
2320;SDS011;15376;48.540;9.268;2022-12-16T07:36:28;45.50;;;29.00;;
2320;SDS011;15376;48.540;9.268;2022-12-16T07:39:12;47.67;;;30.17;;
2320;SDS011;15376;48.540;9.268;2022-12-16T07:41:56;42.10;;;27.65;;
2320;SDS011;15376;48.540;9.268;2022-12-16T07:44:40;46.90;;;27.60;;
2320;SDS011;15376;48.540;9.268;2022-12-16T07:47:24;39.10;;;25.67;;
2320;SDS011;15376;48.540;9.268;2022-12-16T07:50:07;43.42;;;27.10;;
2320;SDS011;15376;48.540;9.268;2022-12-16T07:53:11;42.55;;;25.83;;
2320;SDS011;15376;48.540;9.268;2022-12-16T07:55:55;33.20;;;22.93;;
2320;SDS011;15376;48.540;9.268;2022-12-16T07:58:39;30.07;;;22.80;;
2320;SDS011;15376;48.540;9.268;2022-12-16T08:01:23;31.27;;;22.40;;
2320;SDS011;15376;48.540;9.268;2022-12-16T08:04:07;30.40;;;20.07;;
2320;SDS011;15376;48.540;9.268;2022-12-16T08:06:51;38.03;;;22.80;;
2320;SDS011;15376;48.540;9.268;2022-12-16T08:09:35;32.85;;;20.58;;
2320;SDS011;15376;48.540;9.268;2022-12-16T08:12:19;30.00;;;19.45;;
2320;SDS011;15376;48.540;9.268;2022-12-16T08:15:03;31.23;;;17.80;;
2320;SDS011;15376;48.540;9.268;2022-12-16T08:17:48;31.37;;;20.67;;
2320;SDS011;15376;48.540;9.268;2022-12-16T08:20:32;80.38;;;23.88;;
2320;SDS011;15376;48.540;9.268;2022-12-16T08:23:16;30.63;;;19.87;;
2320;SDS011;15376;48.540;9.268;2022-12-16T08:26:00;36.72;;;20.98;;
2320;SDS011;15376;48.540;9.268;2022-12-16T08:28:44;33.50;;;21.70;;
2320;SDS011;15376;48.540;9.268;2022-12-16T08:31:28;27.73;;;18.90;;
2320;SDS011;15376;48.540;9.268;2022-12-16T08:34:12;30.77;;;18.42;;
2320;SDS011;15376;48.540;9.268;2022-12-16T08:36:56;29.15;;;19.65;;
2320;SDS011;15376;48.540;9.268;2022-12-16T08:39:40;27.30;;;17.03;;
2320;SDS011;15376;48.540;9.268;2022-12-16T08:42:24;23.83;;;15.90;;
2320;SDS011;15376;48.540;9.268;2022-12-16T08:45:08;23.67;;;16.48;;
2320;SDS011;15376;48.540;9.268;2022-12-16T08:47:52;23.97;;;16.70;;
2320;SDS011;15376;48.540;9.268;2022-12-16T08:50:36;27.40;;;17.30;;
2320;SDS011;15376;48.540;9.268;2022-12-16T08:53:20;22.17;;;16.63;;
2320;SDS011;15376;48.540;9.268;2022-12-16T08:56:04;25.60;;;17.83;;
2320;SDS011;15376;48.540;9.268;2022-12-16T08:58:48;23.93;;;15.90;;
2320;SDS011;15376;48.540;9.268;2022-12-16T09:01:31;23.60;;;15.77;;
2320;SDS011;15376;48.540;9.268;2022-12-16T09:04:15;17.60;;;14.07;;
2320;SDS011;15376;48.540;9.268;2022-12-16T09:07:09;27.43;;;17.03;;
2320;SDS011;15376;48.540;9.268;2022-12-16T09:09:53;29.50;;;17.63;;
2320;SDS011;15376;48.540;9.268;2022-12-16T09:12:37;21.97;;;14.13;;
2320;SDS011;15376;48.540;9.268;2022-12-16T09:15:21;24.07;;;16.03;;
2320;SDS011;15376;48.540;9.268;2022-12-16T09:18:05;19.97;;;15.40;;
2320;SDS011;15376;48.540;9.268;2022-12-16T09:20:50;23.20;;;15.33;;
2320;SDS011;15376;48.540;9.268;2022-12-16T09:23:34;24.67;;;16.17;;
2320;SDS011;15376;48.540;9.268;2022-12-16T09:26:18;26.20;;;17.17;;
2320;SDS011;15376;48.540;9.268;2022-12-16T09:29:02;24.30;;;17.27;;
2320;SDS011;15376;48.540;9.268;2022-12-16T09:31:47;26.57;;;16.67;;
2320;SDS011;15376;48.540;9.268;2022-12-16T09:34:30;22.57;;;16.10;;
2320;SDS011;15376;48.540;9.268;2022-12-16T09:37:15;24.20;;;15.57;;
2320;SDS011;15376;48.540;9.268;2022-12-16T09:39:58;23.70;;;16.97;;
2320;SDS011;15376;48.540;9.268;2022-12-16T09:42:50;26.43;;;17.90;;
2320;SDS011;15376;48.540;9.268;2022-12-16T09:45:39;27.92;;;17.13;;
2320;SDS011;15376;48.540;9.268;2022-12-16T09:48:57;31.60;;;19.20;;
2320;SDS011;15376;48.540;9.268;2022-12-16T09:51:49;30.00;;;18.30;;
2320;SDS011;15376;48.540;9.268;2022-12-16T09:54:35;28.80;;;19.60;;
2320;SDS011;15376;48.540;9.268;2022-12-16T09:57:22;25.50;;;17.50;;
2320;SDS011;15376;48.540;9.268;2022-12-16T10:00:12;26.93;;;20.23;;
2320;SDS011;15376;48.540;9.268;2022-12-16T10:03:03;27.53;;;19.70;;
2320;SDS011;15376;48.540;9.268;2022-12-16T10:06:01;26.07;;;18.67;;
2320;SDS011;15376;48.540;9.268;2022-12-16T10:08:50;26.83;;;17.33;;
2320;SDS011;15376;48.540;9.268;2022-12-16T10:14:50;21.83;;;16.50;;
2320;SDS011;15376;48.540;9.268;2022-12-16T10:17:45;26.23;;;18.20;;
2320;SDS011;15376;48.540;9.268;2022-12-16T10:20:32;28.93;;;20.23;;
2320;SDS011;15376;48.540;9.268;2022-12-16T10:29:25;21.07;;;15.30;;
2320;SDS011;15376;48.540;9.268;2022-12-16T10:32:15;23.30;;;16.47;;
2320;SDS011;15376;48.540;9.268;2022-12-16T10:35:16;22.90;;;17.17;;
2320;SDS011;15376;48.540;9.268;2022-12-16T10:38:05;22.23;;;16.10;;
2320;SDS011;15376;48.540;9.268;2022-12-16T10:40:56;23.00;;;17.67;;
2320;SDS011;15376;48.540;9.268;2022-12-16T10:43:45;22.50;;;16.20;;
2320;SDS011;15376;48.540;9.268;2022-12-16T10:46:32;24.97;;;18.60;;
2320;SDS011;15376;48.540;9.268;2022-12-16T10:49:17;24.70;;;16.93;;
2320;SDS011;15376;48.540;9.268;2022-12-16T10:52:02;31.33;;;17.90;;
2320;SDS011;15376;48.540;9.268;2022-12-16T10:54:56;23.60;;;15.80;;
2320;SDS011;15376;48.540;9.268;2022-12-16T11:03:31;24.43;;;16.60;;
2320;SDS011;15376;48.540;9.268;2022-12-16T11:06:36;20.00;;;15.33;;
2320;SDS011;15376;48.540;9.268;2022-12-16T11:12:13;23.97;;;16.93;;
2320;SDS011;15376;48.540;9.268;2022-12-16T11:15:00;22.30;;;17.80;;
2320;SDS011;15376;48.540;9.268;2022-12-16T11:18:00;29.50;;;18.20;;
2320;SDS011;15376;48.540;9.268;2022-12-16T11:21:02;28.87;;;17.50;;
2320;SDS011;15376;48.540;9.268;2022-12-16T11:23:47;21.83;;;16.33;;
2320;SDS011;15376;48.540;9.268;2022-12-16T11:26:53;23.10;;;16.80;;
2320;SDS011;15376;48.540;9.268;2022-12-16T11:29:54;21.77;;;16.00;;
2320;SDS011;15376;48.540;9.268;2022-12-16T11:32:58;25.33;;;17.53;;
2320;SDS011;15376;48.540;9.268;2022-12-16T11:35:49;30.43;;;19.23;;
2320;SDS011;15376;48.540;9.268;2022-12-16T11:38:40;25.07;;;17.00;;
2320;SDS011;15376;48.540;9.268;2022-12-16T11:41:35;26.40;;;18.03;;
2320;SDS011;15376;48.540;9.268;2022-12-16T11:44:28;21.10;;;15.50;;
2320;SDS011;15376;48.540;9.268;2022-12-16T11:50:28;24.50;;;17.50;;
2320;SDS011;15376;48.540;9.268;2022-12-16T11:53:25;26.50;;;17.90;;
2320;SDS011;15376;48.540;9.268;2022-12-16T11:56:35;24.30;;;16.07;;
2320;SDS011;15376;48.540;9.268;2022-12-16T11:59:23;23.07;;;17.30;;
2320;SDS011;15376;48.540;9.268;2022-12-16T12:02:20;27.20;;;17.17;;
2320;SDS011;15376;48.540;9.268;2022-12-16T12:05:29;21.10;;;16.23;;
2320;SDS011;15376;48.540;9.268;2022-12-16T12:11:30;24.80;;;17.67;;
2320;SDS011;15376;48.540;9.268;2022-12-16T12:20:06;18.50;;;14.20;;
2320;SDS011;15376;48.540;9.268;2022-12-16T12:23:10;20.03;;;14.30;;
2320;SDS011;15376;48.540;9.268;2022-12-16T12:29:10;19.20;;;13.73;;
2320;SDS011;15376;48.540;9.268;2022-12-16T12:32:10;15.13;;;10.70;;
2320;SDS011;15376;48.540;9.268;2022-12-16T12:38:02;16.13;;;11.67;;
2320;SDS011;15376;48.540;9.268;2022-12-16T12:46:59;13.73;;;9.67;;
2320;SDS011;15376;48.540;9.268;2022-12-16T12:53:02;16.03;;;10.80;;
2320;SDS011;15376;48.540;9.268;2022-12-16T12:58:51;14.93;;;9.17;;
2320;SDS011;15376;48.540;9.268;2022-12-16T13:01:38;12.00;;;9.60;;
2320;SDS011;15376;48.540;9.268;2022-12-16T13:04:25;12.87;;;9.00;;
2320;SDS011;15376;48.540;9.268;2022-12-16T13:07:11;16.17;;;10.37;;
2320;SDS011;15376;48.540;9.268;2022-12-16T13:13:20;15.07;;;9.77;;
2320;SDS011;15376;48.540;9.268;2022-12-16T13:16:09;14.27;;;9.87;;
2320;SDS011;15376;48.540;9.268;2022-12-16T13:22:33;19.93;;;10.53;;
2320;SDS011;15376;48.540;9.268;2022-12-16T13:25:37;15.10;;;10.20;;
2320;SDS011;15376;48.540;9.268;2022-12-16T13:31:13;16.60;;;10.87;;
2320;SDS011;15376;48.540;9.268;2022-12-16T13:34:00;14.17;;;10.17;;
2320;SDS011;15376;48.540;9.268;2022-12-16T13:36:51;12.43;;;9.07;;
2320;SDS011;15376;48.540;9.268;2022-12-16T13:39:37;12.40;;;10.43;;
2320;SDS011;15376;48.540;9.268;2022-12-16T13:42:31;14.90;;;10.30;;
2320;SDS011;15376;48.540;9.268;2022-12-16T13:45:30;14.07;;;10.87;;
2320;SDS011;15376;48.540;9.268;2022-12-16T13:48:29;12.70;;;10.20;;
2320;SDS011;15376;48.540;9.268;2022-12-16T13:54:38;12.30;;;9.63;;
2320;SDS011;15376;48.540;9.268;2022-12-16T13:57:27;12.17;;;8.60;;
2320;SDS011;15376;48.540;9.268;2022-12-16T14:00:21;11.67;;;8.73;;
2320;SDS011;15376;48.540;9.268;2022-12-16T14:03:47;12.47;;;9.83;;
2320;SDS011;15376;48.540;9.268;2022-12-16T14:06:33;12.30;;;9.07;;
2320;SDS011;15376;48.540;9.268;2022-12-16T14:09:33;14.77;;;9.33;;
2320;SDS011;15376;48.540;9.268;2022-12-16T14:15:23;12.70;;;9.50;;
2320;SDS011;15376;48.540;9.268;2022-12-16T14:18:36;11.80;;;8.50;;
2320;SDS011;15376;48.540;9.268;2022-12-16T14:21:26;17.93;;;10.10;;
2320;SDS011;15376;48.540;9.268;2022-12-16T14:24:21;12.63;;;8.60;;
2320;SDS011;15376;48.540;9.268;2022-12-16T14:27:12;11.80;;;9.40;;
2320;SDS011;15376;48.540;9.268;2022-12-16T14:30:02;16.53;;;10.43;;
2320;SDS011;15376;48.540;9.268;2022-12-16T14:32:58;13.00;;;9.30;;
2320;SDS011;15376;48.540;9.268;2022-12-16T14:35:47;13.77;;;10.57;;
2320;SDS011;15376;48.540;9.268;2022-12-16T14:38:35;16.43;;;11.07;;
2320;SDS011;15376;48.540;9.268;2022-12-16T14:41:20;14.50;;;10.60;;
2320;SDS011;15376;48.540;9.268;2022-12-16T14:44:16;16.60;;;11.07;;
2320;SDS011;15376;48.540;9.268;2022-12-16T14:47:19;16.83;;;11.47;;
2320;SDS011;15376;48.540;9.268;2022-12-16T14:50:21;20.90;;;14.30;;
2320;SDS011;15376;48.540;9.268;2022-12-16T14:53:17;12.67;;;10.40;;
2320;SDS011;15376;48.540;9.268;2022-12-16T14:56:16;12.60;;;8.77;;
2320;SDS011;15376;48.540;9.268;2022-12-16T14:59:21;12.60;;;8.47;;
2320;SDS011;15376;48.540;9.268;2022-12-16T15:05:27;10.73;;;9.60;;
2320;SDS011;15376;48.540;9.268;2022-12-16T15:08:15;12.50;;;8.83;;
2320;SDS011;15376;48.540;9.268;2022-12-16T15:11:00;13.93;;;11.47;;
2320;SDS011;15376;48.540;9.268;2022-12-16T15:13:47;17.83;;;10.00;;
2320;SDS011;15376;48.540;9.268;2022-12-16T15:16:37;15.50;;;11.23;;
2320;SDS011;15376;48.540;9.268;2022-12-16T15:19:21;14.37;;;10.03;;
2320;SDS011;15376;48.540;9.268;2022-12-16T15:22:11;11.93;;;9.50;;
2320;SDS011;15376;48.540;9.268;2022-12-16T15:24:57;13.50;;;10.32;;
2320;SDS011;15376;48.540;9.268;2022-12-16T15:27:41;13.43;;;10.23;;
2320;SDS011;15376;48.540;9.268;2022-12-16T15:33:42;13.30;;;9.77;;
2320;SDS011;15376;48.540;9.268;2022-12-16T15:36:29;18.87;;;11.97;;
2320;SDS011;15376;48.540;9.268;2022-12-16T15:39:19;12.73;;;10.57;;
2320;SDS011;15376;48.540;9.268;2022-12-16T15:42:19;13.30;;;10.80;;
2320;SDS011;15376;48.540;9.268;2022-12-16T15:45:03;17.95;;;11.20;;
2320;SDS011;15376;48.540;9.268;2022-12-16T15:48:19;15.77;;;12.40;;
2320;SDS011;15376;48.540;9.268;2022-12-16T15:51:20;15.97;;;10.80;;
2320;SDS011;15376;48.540;9.268;2022-12-16T15:54:04;12.80;;;10.17;;
2320;SDS011;15376;48.540;9.268;2022-12-16T15:56:48;14.90;;;10.47;;
2320;SDS011;15376;48.540;9.268;2022-12-16T15:59:33;16.50;;;11.70;;
2320;SDS011;15376;48.540;9.268;2022-12-16T16:02:26;13.70;;;11.20;;
2320;SDS011;15376;48.540;9.268;2022-12-16T16:05:13;16.15;;;11.65;;
2320;SDS011;15376;48.540;9.268;2022-12-16T16:08:00;14.67;;;12.17;;
2320;SDS011;15376;48.540;9.268;2022-12-16T16:10:44;19.90;;;11.70;;
2320;SDS011;15376;48.540;9.268;2022-12-16T16:13:28;16.63;;;11.13;;
2320;SDS011;15376;48.540;9.268;2022-12-16T16:16:13;17.87;;;11.70;;
2320;SDS011;15376;48.540;9.268;2022-12-16T16:18:57;12.97;;;10.47;;
2320;SDS011;15376;48.540;9.268;2022-12-16T16:21:41;23.10;;;11.38;;
2320;SDS011;15376;48.540;9.268;2022-12-16T16:24:25;19.03;;;13.57;;
2320;SDS011;15376;48.540;9.268;2022-12-16T16:27:10;17.08;;;11.43;;
2320;SDS011;15376;48.540;9.268;2022-12-16T16:29:56;16.27;;;12.00;;
2320;SDS011;15376;48.540;9.268;2022-12-16T16:32:41;19.60;;;12.07;;
2320;SDS011;15376;48.540;9.268;2022-12-16T16:35:25;14.90;;;12.20;;
2320;SDS011;15376;48.540;9.268;2022-12-16T16:38:09;17.37;;;10.90;;
2320;SDS011;15376;48.540;9.268;2022-12-16T16:40:54;17.50;;;12.37;;
2320;SDS011;15376;48.540;9.268;2022-12-16T16:43:38;16.33;;;11.67;;
2320;SDS011;15376;48.540;9.268;2022-12-16T16:49:27;19.60;;;12.20;;
2320;SDS011;15376;48.540;9.268;2022-12-16T16:52:13;18.73;;;11.70;;
2320;SDS011;15376;48.540;9.268;2022-12-16T16:55:02;14.02;;;10.93;;
2320;SDS011;15376;48.540;9.268;2022-12-16T16:57:47;14.20;;;11.90;;
2320;SDS011;15376;48.540;9.268;2022-12-16T17:00:31;22.63;;;12.82;;
2320;SDS011;15376;48.540;9.268;2022-12-16T17:03:16;16.23;;;11.90;;
2320;SDS011;15376;48.540;9.268;2022-12-16T17:06:00;18.40;;;12.97;;
2320;SDS011;15376;48.540;9.268;2022-12-16T17:08:44;16.20;;;11.65;;
2320;SDS011;15376;48.540;9.268;2022-12-16T17:11:28;18.67;;;11.85;;
2320;SDS011;15376;48.540;9.268;2022-12-16T17:14:13;19.40;;;12.30;;
2320;SDS011;15376;48.540;9.268;2022-12-16T17:16:58;19.42;;;12.70;;
2320;SDS011;15376;48.540;9.268;2022-12-16T17:19:42;18.33;;;12.50;;
2320;SDS011;15376;48.540;9.268;2022-12-16T17:22:26;68.85;;;38.15;;
2320;SDS011;15376;48.540;9.268;2022-12-16T17:25:11;26.87;;;17.63;;
2320;SDS011;15376;48.540;9.268;2022-12-16T17:27:56;18.40;;;13.35;;
2320;SDS011;15376;48.540;9.268;2022-12-16T17:30:40;20.77;;;12.70;;
2320;SDS011;15376;48.540;9.268;2022-12-16T17:33:23;16.30;;;12.32;;
2320;SDS011;15376;48.540;9.268;2022-12-16T17:36:09;18.73;;;13.88;;
2320;SDS011;15376;48.540;9.268;2022-12-16T17:38:54;16.63;;;12.67;;
2320;SDS011;15376;48.540;9.268;2022-12-16T17:41:38;15.05;;;13.40;;
2320;SDS011;15376;48.540;9.268;2022-12-16T17:44:22;18.58;;;13.02;;
2320;SDS011;15376;48.540;9.268;2022-12-16T17:47:07;17.63;;;13.27;;
2320;SDS011;15376;48.540;9.268;2022-12-16T17:49:51;17.98;;;13.48;;
2320;SDS011;15376;48.540;9.268;2022-12-16T17:52:35;17.42;;;13.02;;
2320;SDS011;15376;48.540;9.268;2022-12-16T17:55:19;19.20;;;13.20;;
2320;SDS011;15376;48.540;9.268;2022-12-16T17:58:03;18.60;;;14.43;;
2320;SDS011;15376;48.540;9.268;2022-12-16T18:00:47;21.60;;;13.27;;
2320;SDS011;15376;48.540;9.268;2022-12-16T18:03:31;16.65;;;12.73;;